Time;durP1;ratioP1;P1;durP2;ratioP2;P2;SDS_P1;SDS_P2;PMS_P1;PMS_P2;Temp;Humidity;BMP_temperature;BMP_pressure;BME280_temperature;BME280_humidity;BME280_pressure;Samples;Min_cycle;Max_cycle;Signal;HPM_P1;HPM_P2
2023/11/16 00:00:08;;;;;;;2.95;1.58;;;7.30;99.90;;;;;;5053434;28;20202;-71
2023/11/16 00:02:35;;;;;;;4.60;1.52;;;7.30;99.90;;;;;;5053336;28;20307;-72
2023/11/16 00:05:03;;;;;;;2.40;1.40;;;7.30;99.90;;;;;;5053220;28;20275;-72
2023/11/16 00:07:29;;;;;;;1.63;1.52;;;7.20;99.90;;;;;;5052024;28;20228;-72
2023/11/16 00:09:57;;;;;;;3.03;1.33;;;7.20;99.90;;;;;;5053513;28;20704;-72
2023/11/16 00:12:24;;;;;;;3.10;1.02;;;7.30;99.90;;;;;;5053047;28;20729;-72
2023/11/16 00:14:52;;;;;;;6.72;1.90;;;7.20;99.90;;;;;;5052924;28;20216;-72
2023/11/16 04:33:33;;;;;;;3.70;1.52;;;7.00;99.90;;;;;;5002709;28;20207;-71
2023/11/16 04:36:00;;;;;;;2.28;1.55;;;7.00;99.90;;;;;;5000626;28;20207;-71
2023/11/16 04:38:27;;;;;;;3.20;1.30;;;7.00;99.90;;;;;;5005714;28;20557;-72
2023/11/16 04:40:54;;;;;;;2.10;1.35;;;7.00;99.90;;;;;;5005592;28;20264;-71
2023/11/16 04:43:22;;;;;;;2.22;1.23;;;7.10;99.90;;;;;;5013026;28;20741;-72
2023/11/16 04:45:50;;;;;;;2.00;1.23;;;7.10;99.90;;;;;;5012322;28;20202;-71
2023/11/16 04:48:17;;;;;;;5.32;1.88;;;7.10;99.90;;;;;;5013089;28;20271;-72
2023/11/16 04:50:46;;;;;;;1.48;1.30;;;7.10;99.90;;;;;;5010635;28;20227;-72
2023/11/16 04:53:12;;;;;;;2.65;1.20;;;7.10;99.90;;;;;;5011550;28;20739;-71
2023/11/16 04:55:39;;;;;;;1.48;1.15;;;7.10;99.90;;;;;;5011775;28;20240;-71
2023/11/16 04:58:06;;;;;;;1.23;1.13;;;7.10;99.90;;;;;;5014048;28;20202;-72
2023/11/16 05:00:33;;;;;;;3.20;1.40;;;7.10;99.90;;;;;;5012238;28;20240;-71
2023/11/16 05:03:00;;;;;;;2.38;1.08;;;7.10;99.90;;;;;;5011772;28;20221;-72
2023/11/16 05:05:27;;;;;;;1.52;1.05;;;7.10;99.90;;;;;;5011606;28;20671;-72
2023/11/16 05:07:55;;;;;;;2.13;1.10;;;7.10;99.90;;;;;;5003907;28;20223;-72
2023/11/16 05:10:22;;;;;;;1.13;1.00;;;7.10;99.90;;;;;;5007309;28;20211;-73
2023/11/16 05:12:49;;;;;;;3.80;1.45;;;7.10;99.90;;;;;;5003505;28;20206;-71
2023/11/16 05:15:16;;;;;;;2.67;1.00;;;7.10;99.90;;;;;;5006690;28;20207;-72
2023/11/16 05:17:43;;;;;;;2.33;1.38;;;7.10;99.90;;;;;;5002789;28;20202;-71
2023/11/16 05:20:11;;;;;;;3.28;1.83;;;7.10;99.90;;;;;;5007302;28;20483;-71
2023/11/16 05:22:38;;;;;;;2.55;1.45;;;7.10;99.90;;;;;;5011399;28;20227;-71
2023/11/16 05:25:07;;;;;;;4.82;1.33;;;7.10;99.90;;;;;;5011625;28;20203;-71
2023/11/16 05:27:34;;;;;;;2.75;1.10;;;7.10;99.90;;;;;;5007663;28;20231;-71
2023/11/16 05:30:01;;;;;;;1.52;1.20;;;7.00;99.90;;;;;;5012933;28;20211;-71
2023/11/16 05:32:28;;;;;;;2.50;1.40;;;7.00;99.90;;;;;;5014946;28;20241;-73
2023/11/16 05:34:55;;;;;;;3.28;1.63;;;6.90;99.90;;;;;;5010818;28;20297;-73
2023/11/16 05:37:23;;;;;;;1.45;1.15;;;6.90;99.90;;;;;;5016856;28;20215;-72
2023/11/16 05:39:50;;;;;;;6.97;1.45;;;6.90;99.90;;;;;;5013277;28;20276;-71
2023/11/16 05:42:18;;;;;;;2.42;1.40;;;6.90;99.90;;;;;;5012438;28;20235;-71
2023/11/16 05:44:45;;;;;;;1.25;1.15;;;7.00;99.90;;;;;;5011880;28;20221;-71
2023/11/16 05:47:12;;;;;;;2.75;1.05;;;7.00;99.90;;;;;;5012497;28;20207;-71
2023/11/16 05:49:39;;;;;;;7.57;1.60;;;7.00;99.90;;;;;;5012383;28;20226;-71
2023/11/16 05:52:06;;;;;;;1.67;0.93;;;7.00;99.90;;;;;;5012719;28;20229;-71
2023/11/16 05:54:33;;;;;;;4.07;1.48;;;7.00;99.90;;;;;;5011867;28;20584;-71
2023/11/16 05:57:00;;;;;;;2.05;1.80;;;7.00;99.90;;;;;;5013870;28;20211;-71
2023/11/16 05:59:28;;;;;;;1.90;1.70;;;7.00;99.90;;;;;;5014932;28;20706;-72
2023/11/16 06:01:54;;;;;;;2.17;1.50;;;7.00;99.90;;;;;;5014496;28;20508;-74
2023/11/16 06:04:22;;;;;;;1.23;1.08;;;7.00;99.90;;;;;;5014408;28;20206;-73
2023/11/16 06:06:48;;;;;;;2.05;1.20;;;7.00;99.90;;;;;;5010397;28;20253;-73
2023/11/16 06:09:15;;;;;;;2.78;1.08;;;7.00;99.90;;;;;;5008948;28;20221;-73
2023/11/16 06:11:42;;;;;;;1.65;1.23;;;7.00;99.90;;;;;;5011601;28;20590;-72
2023/11/16 06:14:09;;;;;;;2.00;1.20;;;7.00;99.90;;;;;;5010938;28;20217;-72
2023/11/16 06:16:43;;;;;;;1.08;0.90;;;7.00;99.90;;;;;;5011212;28;20245;-72
2023/11/16 06:19:09;;;;;;;1.30;1.10;;;7.00;99.90;;;;;;5011083;28;20195;-72
2023/11/16 06:21:36;;;;;;;1.30;1.10;;;7.00;99.90;;;;;;5010873;28;20225;-72
2023/11/16 06:24:03;;;;;;;3.47;1.58;;;6.90;99.90;;;;;;5008699;28;20217;-72
2023/11/16 06:26:31;;;;;;;1.60;1.10;;;6.90;99.90;;;;;;5005279;28;20665;-72
2023/11/16 06:28:57;;;;;;;4.32;1.98;;;6.90;99.90;;;;;;5010984;28;20299;-72
2023/11/16 06:31:24;;;;;;;1.55;1.00;;;6.90;99.90;;;;;;5011221;28;20230;-72
2023/11/16 06:33:52;;;;;;;2.08;1.10;;;6.90;99.90;;;;;;5010946;28;20593;-72
2023/11/16 06:36:22;;;;;;;2.00;1.48;;;6.90;99.90;;;;;;5010638;28;20206;-72
2023/11/16 06:38:49;;;;;;;1.33;1.23;;;6.90;99.90;;;;;;5011105;28;20222;-72
2023/11/16 06:41:17;;;;;;;2.65;1.27;;;6.90;99.90;;;;;;5010966;28;20234;-72
2023/11/16 06:43:44;;;;;;;1.55;1.30;;;6.90;99.90;;;;;;5011055;28;20280;-72
2023/11/16 06:46:12;;;;;;;1.20;1.10;;;6.90;99.90;;;;;;5010336;28;20212;-72
2023/11/16 06:48:39;;;;;;;1.60;1.08;;;6.90;99.90;;;;;;5011134;28;20220;-72
2023/11/16 06:51:08;;;;;;;6.20;1.52;;;6.90;99.90;;;;;;5008787;28;20234;-72
2023/11/16 06:53:35;;;;;;;4.57;1.58;;;6.90;99.90;;;;;;5011147;28;20234;-72
2023/11/16 06:56:04;;;;;;;2.72;2.15;;;6.90;99.90;;;;;;5008434;28;20210;-72
2023/11/16 06:58:31;;;;;;;2.92;1.50;;;6.90;99.90;;;;;;5004997;28;20205;-72
2023/11/16 07:00:58;;;;;;;1.58;1.30;;;6.90;99.90;;;;;;5007209;28;20311;-72
2023/11/16 07:03:25;;;;;;;1.80;1.23;;;6.90;99.90;;;;;;5009435;28;20206;-73
2023/11/16 07:05:52;;;;;;;3.13;1.27;;;6.90;99.90;;;;;;5008800;28;20214;-72
2023/11/16 07:08:20;;;;;;;2.95;1.92;;;6.90;99.90;;;;;;5011161;28;20226;-72
2023/11/16 07:10:48;;;;;;;3.78;1.77;;;6.90;99.90;;;;;;5015012;28;20253;-73
2023/11/16 07:13:15;;;;;;;2.22;1.33;;;6.90;99.90;;;;;;5013093;28;20205;-72
2023/11/16 07:15:43;;;;;;;3.55;1.73;;;6.90;99.90;;;;;;5014523;28;20236;-72
2023/11/16 07:18:10;;;;;;;1.75;1.10;;;6.90;99.90;;;;;;5013106;28;20212;-72
2023/11/16 07:20:37;;;;;;;7.32;1.90;;;6.90;99.90;;;;;;5014902;28;20754;-73
2023/11/16 07:23:04;;;;;;;2.38;1.30;;;6.90;99.90;;;;;;5013069;28;20216;-73
2023/11/16 07:25:33;;;;;;;2.20;1.38;;;6.90;99.90;;;;;;5008074;28;20592;-73
2023/11/16 07:28:00;;;;;;;1.88;1.38;;;7.00;99.90;;;;;;5012838;28;20272;-72
2023/11/16 07:30:27;;;;;;;4.45;1.55;;;7.00;99.90;;;;;;5014517;28;20205;-72
2023/11/16 07:32:54;;;;;;;2.00;1.35;;;7.00;99.90;;;;;;5014158;28;20693;-72
2023/11/16 07:35:23;;;;;;;3.03;1.27;;;7.00;99.90;;;;;;5013944;28;20209;-72
2023/11/16 07:37:50;;;;;;;1.48;1.30;;;7.10;99.90;;;;;;5013116;28;20241;-72
2023/11/16 07:40:18;;;;;;;3.22;1.67;;;7.10;99.90;;;;;;5013811;28;20209;-73
2023/11/16 07:42:47;;;;;;;3.20;1.40;;;7.10;99.90;;;;;;5014522;28;20720;-73
2023/11/16 07:45:15;;;;;;;1.75;1.30;;;7.10;99.90;;;;;;5013573;28;20202;-72
2023/11/16 07:47:43;;;;;;;3.53;1.60;;;7.20;99.90;;;;;;5014393;28;20207;-72
2023/11/16 07:50:12;;;;;;;4.75;1.15;;;7.20;99.90;;;;;;5013858;28;20225;-72
2023/11/16 07:52:43;;;;;;;1.55;1.23;;;7.20;99.90;;;;;;5014840;28;20229;-72
2023/11/16 07:55:11;;;;;;;1.40;1.25;;;7.20;99.90;;;;;;5013688;28;20210;-72
2023/11/16 07:57:38;;;;;;;1.95;1.45;;;7.20;99.90;;;;;;5013285;28;20206;-72
2023/11/16 08:00:09;;;;;;;2.70;1.80;;;7.10;99.90;;;;;;5014219;28;20198;-72
2023/11/16 08:03:42;;;;;;;1.88;1.30;;;7.10;99.90;;;;;;5014428;28;20234;-72
2023/11/16 08:05:26;;;;;;;2.85;1.40;;;7.10;99.90;;;;;;5012780;28;20288;-72
2023/11/16 08:07:55;;;;;;;1.52;1.42;;;7.10;99.90;;;;;;5014084;28;20206;-73
2023/11/16 08:10:24;;;;;;;1.58;1.48;;;7.20;99.90;;;;;;5013513;28;20233;-72
2023/11/16 08:12:51;;;;;;;3.95;2.00;;;7.20;99.90;;;;;;5008640;28;20210;-72
2023/11/16 08:15:23;;;;;;;2.10;1.30;;;7.30;99.90;;;;;;5009599;28;20219;-72
2023/11/16 08:17:55;;;;;;;3.90;1.60;;;7.30;99.90;;;;;;5012094;28;20742;-72
2023/11/16 08:20:23;;;;;;;2.88;1.20;;;7.30;99.90;;;;;;5012062;28;20217;-72
2023/11/16 08:22:51;;;;;;;2.45;1.40;;;7.40;99.90;;;;;;5013457;28;20238;-70
2023/11/16 08:25:21;;;;;;;3.33;1.58;;;7.40;99.90;;;;;;5013263;28;20220;-70
2023/11/16 08:27:48;;;;;;;1.50;1.40;;;7.50;99.90;;;;;;5014101;28;20648;-70
2023/11/16 08:30:15;;;;;;;2.50;1.60;;;7.50;99.90;;;;;;5013137;28;20218;-70
2023/11/16 08:32:44;;;;;;;2.40;1.20;;;7.60;99.90;;;;;;5013181;28;20210;-70
2023/11/16 08:35:13;;;;;;;1.30;1.20;;;7.60;99.90;;;;;;5012243;28;20217;-69
2023/11/16 08:37:40;;;;;;;2.15;1.92;;;7.70;99.90;;;;;;5013798;28;20217;-70
2023/11/16 08:40:08;;;;;;;3.13;1.55;;;7.80;99.90;;;;;;5001482;28;20195;-71
2023/11/16 08:42:41;;;;;;;2.08;1.25;;;7.80;99.90;;;;;;5012679;28;20234;-71
2023/11/16 08:45:17;;;;;;;1.48;1.30;;;7.90;99.90;;;;;;5012956;28;20206;-71
2023/11/16 08:47:45;;;;;;;1.73;1.60;;;8.00;99.90;;;;;;5013780;28;20209;-71
2023/11/16 08:50:13;;;;;;;4.22;1.65;;;8.00;99.90;;;;;;5012297;28;20229;-72
2023/11/16 08:52:42;;;;;;;1.70;1.30;;;8.10;99.90;;;;;;5013247;28;20206;-71
2023/11/16 08:55:11;;;;;;;1.80;1.10;;;8.10;99.90;;;;;;5011884;28;20305;-72
2023/11/16 08:57:42;;;;;;;4.20;1.50;;;8.10;99.90;;;;;;5012891;28;20264;-71
2023/11/16 09:00:28;;;;;;;2.25;1.55;;;8.10;99.90;;;;;;5012763;28;20237;-71
2023/11/16 09:02:57;;;;;;;3.30;1.80;;;8.20;99.90;;;;;;5012773;28;20293;-71
2023/11/16 09:05:25;;;;;;;1.73;1.17;;;8.20;99.90;;;;;;5011401;28;20207;-72
2023/11/16 09:07:53;;;;;;;6.40;1.40;;;8.40;99.90;;;;;;5011122;28;20210;-71
2023/11/16 09:10:21;;;;;;;2.50;1.08;;;8.50;99.90;;;;;;5011830;28;20310;-71
2023/11/16 09:12:49;;;;;;;3.05;1.65;;;8.60;99.90;;;;;;5012035;28;20706;-72
2023/11/16 09:15:17;;;;;;;2.10;1.65;;;8.70;99.90;;;;;;5011273;28;20205;-71
2023/11/16 09:17:45;;;;;;;1.20;1.10;;;8.70;99.90;;;;;;5012642;28;20211;-71
2023/11/16 09:20:22;;;;;;;2.38;1.30;;;8.80;99.90;;;;;;5012561;28;20209;-71
2023/11/16 09:22:50;;;;;;;3.92;1.45;;;8.80;99.90;;;;;;5013020;28;20214;-71
2023/11/16 09:25:19;;;;;;;2.67;1.40;;;8.70;99.90;;;;;;5011614;28;20225;-71
2023/11/16 09:27:52;;;;;;;2.90;1.80;;;8.70;99.90;;;;;;5012392;28;20217;-71
2023/11/16 09:30:22;;;;;;;1.45;1.23;;;8.80;99.90;;;;;;5014203;28;20219;-72
2023/11/16 09:32:50;;;;;;;6.15;1.70;;;8.80;99.90;;;;;;5014286;28;20222;-71
2023/11/16 09:35:21;;;;;;;1.10;1.00;;;8.80;99.90;;;;;;5009113;28;20265;-71
2023/11/16 09:37:49;;;;;;;1.52;1.40;;;8.70;99.90;;;;;;5011940;28;20734;-71
2023/11/16 09:40:21;;;;;;;2.40;1.33;;;8.70;99.90;;;;;;5010474;28;20841;-71
2023/11/16 09:42:48;;;;;;;2.40;1.40;;;8.60;99.90;;;;;;5011974;28;20207;-71
2023/11/16 09:45:20;;;;;;;4.22;1.48;;;8.50;99.90;;;;;;5002909;28;20230;-71
2023/11/16 09:47:57;;;;;;;3.20;1.05;;;8.40;99.90;;;;;;5006649;28;20295;-71
2023/11/16 09:50:27;;;;;;;2.38;1.60;;;8.30;99.90;;;;;;5010393;28;20226;-70
2023/11/16 09:52:56;;;;;;;2.45;1.30;;;8.30;99.90;;;;;;5005821;28;20215;-71
2023/11/16 09:55:23;;;;;;;1.80;1.35;;;8.40;99.90;;;;;;5009870;28;20261;-70
2023/11/16 09:57:52;;;;;;;1.95;1.25;;;8.40;99.90;;;;;;5011598;28;20217;-71
2023/11/16 10:00:20;;;;;;;3.03;1.77;;;8.50;99.90;;;;;;5006062;28;20259;-71
2023/11/16 10:02:53;;;;;;;5.43;2.38;;;8.50;99.90;;;;;;5011672;28;20245;-71
2023/11/16 10:05:22;;;;;;;1.30;1.13;;;8.60;99.90;;;;;;5010785;28;20213;-71
2023/11/16 10:07:51;;;;;;;2.35;2.15;;;8.60;99.90;;;;;;5011893;28;20257;-71
2023/11/16 10:10:19;;;;;;;2.65;1.70;;;8.60;99.90;;;;;;5003117;28;20229;-71
2023/11/16 10:12:47;;;;;;;1.45;1.10;;;8.60;99.90;;;;;;5004150;28;20647;-70
2023/11/16 10:15:19;;;;;;;1.63;1.50;;;8.60;99.90;;;;;;5004122;28;20258;-71
2023/11/16 10:17:46;;;;;;;5.25;1.83;;;8.60;99.90;;;;;;5005395;28;20283;-71
2023/11/16 10:20:14;;;;;;;1.83;1.55;;;8.60;99.90;;;;;;5011035;28;20690;-71
2023/11/16 10:22:41;;;;;;;6.35;1.98;;;8.60;99.90;;;;;;5011368;28;20206;-70
2023/11/16 10:25:10;;;;;;;1.33;0.90;;;8.70;99.90;;;;;;5003211;28;20722;-70
2023/11/16 10:27:37;;;;;;;1.58;1.40;;;8.70;99.90;;;;;;5011104;28;20215;-71
2023/11/16 10:30:06;;;;;;;3.78;1.92;;;8.80;99.90;;;;;;5004897;28;20603;-71
2023/11/16 10:32:34;;;;;;;2.38;1.20;;;8.70;99.90;;;;;;5002913;28;20236;-71
2023/11/16 10:35:01;;;;;;;1.88;1.35;;;8.70;99.90;;;;;;5004108;28;20714;-71
2023/11/16 10:37:29;;;;;;;1.35;0.93;;;8.70;99.90;;;;;;5008221;28;20226;-71
2023/11/16 10:40:10;;;;;;;5.88;1.40;;;8.70;99.90;;;;;;4993501;28;20199;-71
2023/11/16 10:42:41;;;;;;;2.55;1.52;;;8.70;99.90;;;;;;5003580;28;20226;-71
2023/11/16 10:45:14;;;;;;;2.55;1.35;;;8.80;99.90;;;;;;5010315;28;20209;-71
2023/11/16 10:47:43;;;;;;;1.30;1.20;;;8.80;99.90;;;;;;5013447;28;20208;-71
2023/11/16 10:50:15;;;;;;;2.65;1.35;;;8.80;99.90;;;;;;5008354;28;20243;-71
2023/11/16 10:52:42;;;;;;;2.55;1.45;;;8.70;99.90;;;;;;5010946;28;20238;-70
2023/11/16 10:55:16;;;;;;;2.38;1.30;;;8.70;99.90;;;;;;4996150;28;20203;-70
2023/11/16 10:57:48;;;;;;;2.55;1.40;;;8.60;99.90;;;;;;5010216;28;20202;-71
2023/11/16 11:00:17;;;;;;;4.43;1.40;;;8.60;99.90;;;;;;5003642;28;20254;-71
2023/11/16 11:02:46;;;;;;;1.98;1.42;;;8.60;99.90;;;;;;5010990;28;20229;-71
2023/11/16 11:05:17;;;;;;;2.47;1.33;;;8.70;99.90;;;;;;5010324;28;20261;-71
2023/11/16 11:07:52;;;;;;;1.60;1.48;;;8.70;99.90;;;;;;5006764;28;20214;-71
2023/11/16 11:10:23;;;;;;;2.85;1.30;;;8.70;99.90;;;;;;5007608;28;20218;-70
2023/11/16 11:12:51;;;;;;;1.98;1.48;;;8.70;99.90;;;;;;5003999;28;20580;-71
2023/11/16 11:15:29;;;;;;;1.20;1.05;;;8.80;99.90;;;;;;5010035;28;20210;-71
2023/11/16 11:17:58;;;;;;;2.20;1.30;;;8.80;99.90;;;;;;5005435;28;20200;-72
2023/11/16 11:20:36;;;;;;;1.63;1.38;;;8.90;99.90;;;;;;5009336;28;20601;-70
2023/11/16 11:23:13;;;;;;;2.70;1.40;;;8.90;99.90;;;;;;5010435;28;20202;-71
2023/11/16 11:25:41;;;;;;;2.53;1.42;;;8.90;99.90;;;;;;5009446;28;20206;-70
2023/11/16 11:28:09;;;;;;;9.02;1.95;;;9.10;99.90;;;;;;5003913;28;20329;-70
2023/11/16 11:30:37;;;;;;;2.10;1.33;;;9.20;99.90;;;;;;5009918;28;20230;-70
2023/11/16 11:33:14;;;;;;;1.98;1.10;;;9.30;99.90;;;;;;5010163;28;20215;-70
2023/11/16 11:35:48;;;;;;;1.23;1.00;;;9.40;99.90;;;;;;5002967;28;20552;-70
2023/11/16 11:38:19;;;;;;;2.03;1.40;;;9.50;99.90;;;;;;5010503;28;20205;-71
2023/11/16 11:40:52;;;;;;;2.47;1.30;;;9.60;99.90;;;;;;5010168;28;20257;-71
2023/11/16 11:43:21;;;;;;;1.23;1.13;;;9.60;99.90;;;;;;5004035;28;20203;-71
2023/11/16 11:45:49;;;;;;;3.00;1.45;;;9.60;99.90;;;;;;5008457;28;20219;-71
2023/11/16 11:48:16;;;;;;;9.25;1.67;;;9.50;99.90;;;;;;5010110;28;20203;-72
2023/11/16 11:50:43;;;;;;;7.40;2.00;;;9.50;99.90;;;;;;5007769;28;20223;-71
2023/11/16 11:53:16;;;;;;;3.95;1.88;;;9.50;99.90;;;;;;5010376;28;20249;-72
2023/11/16 11:55:43;;;;;;;2.97;1.80;;;9.50;99.90;;;;;;5011861;28;20228;-71
2023/11/16 11:58:10;;;;;;;5.13;1.85;;;9.50;99.90;;;;;;5013432;28;20207;-72
2023/11/16 12:00:48;;;;;;;8.45;1.85;;;9.50;99.90;;;;;;5013517;28;20222;-71
2023/11/16 12:03:15;;;;;;;2.00;1.80;;;9.40;99.90;;;;;;5013603;28;20656;-72
2023/11/16 12:05:42;;;;;;;4.90;2.70;;;9.30;99.90;;;;;;5012938;28;20212;-71
2023/11/16 12:08:10;;;;;;;2.95;2.25;;;9.30;99.90;;;;;;5013660;28;20214;-72
2023/11/16 12:10:37;;;;;;;3.38;2.40;;;9.30;99.90;;;;;;5009724;28;20230;-72
2023/11/16 12:13:07;;;;;;;6.43;3.13;;;9.30;99.90;;;;;;5013694;28;20591;-71
2023/11/16 12:15:34;;;;;;;6.35;3.90;;;9.30;99.90;;;;;;5011207;28;20214;-71
2023/11/16 12:18:06;;;;;;;5.72;3.50;;;9.20;99.90;;;;;;5013429;28;20210;-71
2023/11/16 12:20:33;;;;;;;7.00;3.85;;;9.20;99.90;;;;;;5011099;28;20203;-71
2023/11/16 12:23:00;;;;;;;7.13;3.70;;;9.10;99.90;;;;;;5012903;28;20675;-72
2023/11/16 12:25:29;;;;;;;5.32;2.90;;;9.10;99.90;;;;;;5012282;28;20202;-71
2023/11/16 12:27:59;;;;;;;4.82;2.83;;;9.10;99.90;;;;;;5008429;28;20211;-71
2023/11/16 12:30:25;;;;;;;7.80;3.70;;;9.20;99.90;;;;;;5011759;28;20220;-71
2023/11/16 12:32:53;;;;;;;6.35;3.45;;;9.20;99.90;;;;;;5012912;28;20582;-71
2023/11/16 12:35:22;;;;;;;6.57;3.42;;;9.10;99.90;;;;;;5006049;28;20294;-71
2023/11/16 12:37:50;;;;;;;6.28;3.85;;;9.10;99.90;;;;;;5001532;28;20207;-71
2023/11/16 12:40:18;;;;;;;4.10;2.80;;;9.10;99.90;;;;;;5008406;28;20206;-71
2023/11/16 12:42:46;;;;;;;4.72;2.92;;;9.00;99.90;;;;;;5012581;28;20335;-71
2023/11/16 12:45:13;;;;;;;4.82;3.63;;;9.00;99.90;;;;;;5007006;28;20207;-71
2023/11/16 12:47:40;;;;;;;3.13;2.80;;;8.90;99.90;;;;;;5006486;28;20207;-70
2023/11/16 12:50:08;;;;;;;5.75;3.25;;;8.90;99.90;;;;;;5002754;28;20715;-71
2023/11/16 12:52:37;;;;;;;4.32;3.25;;;8.90;99.90;;;;;;5000404;28;20234;-71
2023/11/16 12:55:09;;;;;;;5.43;3.20;;;8.80;99.90;;;;;;5008730;28;20306;-71
2023/11/16 12:57:37;;;;;;;4.50;3.50;;;8.80;99.90;;;;;;5010280;28;20749;-71
2023/11/16 13:00:08;;;;;;;3.67;2.90;;;8.80;99.90;;;;;;5007300;28;20205;-71
2023/11/16 13:02:35;;;;;;;3.78;3.25;;;8.80;99.90;;;;;;5003338;28;20321;-71
2023/11/16 13:05:04;;;;;;;4.25;2.95;;;8.70;99.90;;;;;;5008699;28;20211;-72
2023/11/16 13:07:31;;;;;;;5.32;3.15;;;8.70;99.90;;;;;;5004424;28;20206;-71
2023/11/16 13:10:00;;;;;;;4.38;3.03;;;8.70;99.90;;;;;;5017233;28;20229;-72
2023/11/16 13:12:26;;;;;;;4.68;2.25;;;8.70;99.90;;;;;;5012400;28;20284;-70
2023/11/16 13:14:53;;;;;;;2.72;1.98;;;8.60;99.90;;;;;;5006411;28;20281;-71
2023/11/16 13:17:20;;;;;;;1.45;1.15;;;8.50;99.90;;;;;;5012007;28;20202;-71
2023/11/16 13:19:47;;;;;;;6.90;2.70;;;8.30;99.90;;;;;;5011474;28;20214;-70
2023/11/16 13:22:13;;;;;;;5.10;2.80;;;8.20;99.90;;;;;;5011792;28;20226;-72
2023/11/16 13:24:40;;;;;;;1.93;1.80;;;8.20;99.90;;;;;;5009132;28;20265;-72
2023/11/16 13:27:08;;;;;;;3.35;2.40;;;8.10;99.90;;;;;;5009026;28;20771;-71
2023/11/16 13:29:35;;;;;;;2.92;2.25;;;8.10;99.90;;;;;;5006764;28;20210;-72
2023/11/16 13:32:02;;;;;;;2.95;1.73;;;8.10;99.90;;;;;;5011554;28;20603;-71
2023/11/16 13:34:32;;;;;;;2.95;1.80;;;8.00;99.90;;;;;;5008325;28;20211;-72
2023/11/16 13:36:58;;;;;;;3.05;2.20;;;8.00;99.90;;;;;;5007000;28;20198;-72
2023/11/16 13:39:27;;;;;;;3.95;2.45;;;8.00;99.90;;;;;;5012252;28;20664;-71
2023/11/16 13:41:54;;;;;;;3.00;2.70;;;8.00;99.90;;;;;;5012743;28;20221;-72
2023/11/16 13:44:23;;;;;;;4.65;2.20;;;8.00;99.90;;;;;;5012558;28;20706;-71
2023/11/16 13:46:50;;;;;;;3.30;2.30;;;8.00;99.90;;;;;;5011286;28;20273;-71
2023/11/16 13:49:17;;;;;;;3.90;2.55;;;8.10;99.90;;;;;;5011514;28;20207;-71
2023/11/16 13:51:43;;;;;;;3.08;2.28;;;8.10;99.90;;;;;;5011968;28;20714;-71
2023/11/16 13:54:10;;;;;;;4.10;2.05;;;8.00;99.90;;;;;;5008351;28;20290;-71
2023/11/16 13:56:37;;;;;;;4.97;3.03;;;8.00;99.90;;;;;;5006026;28;20224;-71
2023/11/16 13:59:05;;;;;;;4.55;2.90;;;8.00;99.90;;;;;;4999607;28;20200;-72
2023/11/16 14:01:33;;;;;;;3.10;2.45;;;7.90;99.90;;;;;;5006655;28;20281;-71
2023/11/16 14:04:00;;;;;;;8.35;2.78;;;7.90;99.90;;;;;;5006656;28;20203;-72
2023/11/16 14:06:27;;;;;;;2.85;2.00;;;7.90;99.90;;;;;;5011479;28;20203;-72
2023/11/16 14:08:54;;;;;;;3.10;2.17;;;7.80;99.90;;;;;;5011521;28;20233;-72
2023/11/16 14:11:20;;;;;;;3.38;1.90;;;7.80;99.90;;;;;;5011632;28;20226;-72
2023/11/16 14:13:47;;;;;;;2.38;2.08;;;7.70;99.90;;;;;;5011576;28;20210;-72
2023/11/16 14:16:14;;;;;;;2.78;2.10;;;7.70;99.90;;;;;;5011633;28;20217;-72
2023/11/16 14:18:42;;;;;;;6.32;2.78;;;7.60;99.90;;;;;;5009852;28;20211;-72
2023/11/16 14:21:10;;;;;;;3.28;2.50;;;7.60;99.90;;;;;;5009082;28;20223;-72
2023/11/16 14:23:37;;;;;;;5.75;2.40;;;7.70;99.90;;;;;;5007162;28;20210;-72
2023/11/16 14:26:06;;;;;;;3.15;2.25;;;7.70;99.90;;;;;;5011082;28;20618;-72
2023/11/16 14:28:33;;;;;;;2.83;2.25;;;7.70;99.90;;;;;;5008039;28;20209;-72
2023/11/16 14:31:00;;;;;;;3.33;2.25;;;7.60;99.90;;;;;;5007847;28;20220;-71
2023/11/16 14:33:27;;;;;;;2.45;2.10;;;7.60;99.90;;;;;;5011069;28;20203;-72
2023/11/16 14:35:55;;;;;;;2.53;2.17;;;7.60;99.90;;;;;;5003995;28;20217;-72
2023/11/16 14:38:21;;;;;;;2.75;2.50;;;7.50;99.90;;;;;;5010814;28;20209;-72
2023/11/16 14:40:48;;;;;;;4.82;2.15;;;7.50;99.90;;;;;;5012401;28;20587;-72
2023/11/16 14:43:15;;;;;;;2.95;2.63;;;7.40;99.90;;;;;;5004405;28;20245;-70
2023/11/16 14:45:41;;;;;;;6.70;2.63;;;7.50;99.90;;;;;;5006616;28;20215;-73
2023/11/16 14:48:08;;;;;;;3.40;2.10;;;7.40;99.90;;;;;;5007231;28;20211;-72
2023/11/16 14:50:35;;;;;;;4.30;2.25;;;7.30;99.90;;;;;;5007559;28;20683;-72
2023/11/16 14:53:04;;;;;;;5.25;1.90;;;7.30;99.90;;;;;;5007795;28;20198;-72
2023/11/16 14:55:31;;;;;;;1.73;1.63;;;7.20;99.90;;;;;;5002789;28;20671;-72
2023/11/16 14:57:57;;;;;;;2.17;1.38;;;7.20;99.90;;;;;;5010974;28;20210;-72
2023/11/16 15:00:26;;;;;;;2.00;1.80;;;7.20;99.90;;;;;;5011193;28;20206;-72
2023/11/16 15:02:53;;;;;;;2.75;1.65;;;7.10;99.90;;;;;;5004935;28;20210;-71
2023/11/16 15:05:20;;;;;;;3.80;2.20;;;7.20;99.90;;;;;;5001914;28;20245;-71
2023/11/16 15:07:47;;;;;;;2.47;1.88;;;7.10;99.90;;;;;;5007126;28;20210;-71
2023/11/16 15:10:20;;;;;;;1.45;1.35;;;7.10;99.90;;;;;;5010956;28;20205;-72
2023/11/16 15:12:47;;;;;;;3.00;1.92;;;7.10;99.90;;;;;;5005940;28;20203;-71
2023/11/16 15:15:16;;;;;;;3.35;2.88;;;7.00;99.90;;;;;;5008519;28;20607;-72
2023/11/16 15:17:42;;;;;;;3.70;2.05;;;7.00;99.90;;;;;;5006552;28;20709;-71
2023/11/16 15:20:11;;;;;;;2.10;1.80;;;7.00;99.90;;;;;;5008303;28;20210;-71
2023/11/16 15:22:42;;;;;;;2.20;1.70;;;6.90;99.90;;;;;;5003944;28;20226;-72
2023/11/16 15:25:09;;;;;;;2.83;1.92;;;6.90;99.90;;;;;;5010440;28;20563;-72
2023/11/16 15:27:37;;;;;;;1.60;1.50;;;6.90;99.90;;;;;;5004061;28;20718;-71
2023/11/16 15:30:07;;;;;;;3.90;1.80;;;6.90;99.90;;;;;;5008974;28;20207;-72
2023/11/16 15:32:34;;;;;;;2.35;1.85;;;6.80;99.90;;;;;;5003729;28;20230;-71
2023/11/16 15:35:03;;;;;;;2.85;1.80;;;6.80;99.90;;;;;;5014013;28;20232;-71
2023/11/16 15:37:29;;;;;;;2.00;1.50;;;6.80;99.90;;;;;;5014575;28;20257;-71
2023/11/16 15:39:57;;;;;;;2.17;1.42;;;6.80;99.90;;;;;;5014362;28;20589;-72
2023/11/16 15:42:25;;;;;;;2.00;1.80;;;6.90;99.90;;;;;;5007870;28;20654;-72
2023/11/16 15:44:54;;;;;;;2.35;2.03;;;6.90;99.90;;;;;;5013791;28;20206;-72
2023/11/16 15:47:21;;;;;;;2.40;2.20;;;7.00;99.90;;;;;;5011049;28;20200;-72
2023/11/16 15:49:48;;;;;;;4.30;2.90;;;7.00;99.90;;;;;;5014129;28;20226;-71
2023/11/16 15:52:15;;;;;;;2.90;2.60;;;7.00;99.90;;;;;;5013906;28;20226;-71
2023/11/16 15:54:42;;;;;;;3.25;2.10;;;6.90;99.90;;;;;;5010546;28;20207;-72
2023/11/16 15:57:08;;;;;;;2.72;2.47;;;6.90;99.90;;;;;;5008114;28;20206;-71
2023/11/16 15:59:35;;;;;;;5.20;2.80;;;6.90;99.90;;;;;;5014005;28;20207;-72
2023/11/16 16:02:04;;;;;;;5.07;3.10;;;6.90;99.90;;;;;;5013247;28;21122;-71
2023/11/16 16:04:32;;;;;;;3.97;2.45;;;6.90;99.90;;;;;;5013542;28;20205;-71
2023/11/16 16:06:59;;;;;;;4.68;2.65;;;6.90;99.90;;;;;;5005858;28;20209;-71
2023/11/16 16:09:28;;;;;;;2.97;2.63;;;6.90;99.90;;;;;;5006599;28;20308;-71
2023/11/16 16:11:55;;;;;;;3.83;2.30;;;6.90;99.90;;;;;;5010745;28;20258;-70
2023/11/16 16:14:22;;;;;;;2.60;2.40;;;6.90;99.90;;;;;;5012110;28;20605;-71
2023/11/16 16:16:51;;;;;;;2.20;2.00;;;6.90;99.90;;;;;;5009429;28;20215;-71
2023/11/16 16:19:20;;;;;;;4.88;2.60;;;6.90;99.90;;;;;;5013235;28;20206;-71
2023/11/16 16:21:47;;;;;;;3.20;2.55;;;6.80;99.90;;;;;;5012409;28;20886;-71
2023/11/16 16:24:14;;;;;;;2.10;1.88;;;6.80;99.90;;;;;;5011982;28;20217;-71
2023/11/16 16:26:41;;;;;;;2.90;2.67;;;6.80;99.90;;;;;;5012677;28;20215;-71
2023/11/16 16:29:07;;;;;;;2.35;1.85;;;6.70;99.90;;;;;;5012336;28;20207;-71
2023/11/16 16:31:34;;;;;;;6.25;2.70;;;6.70;99.90;;;;;;5010349;28;20228;-70
2023/11/16 16:34:02;;;;;;;4.47;2.20;;;6.70;99.90;;;;;;5010242;28;20706;-72
2023/11/16 16:36:30;;;;;;;3.63;2.30;;;6.60;99.90;;;;;;5009215;28;20217;-71
2023/11/16 16:38:57;;;;;;;2.75;1.85;;;6.60;99.90;;;;;;5012414;28;20237;-71
2023/11/16 16:41:23;;;;;;;4.53;1.92;;;6.60;99.90;;;;;;5011709;28;20621;-71
2023/11/16 16:43:50;;;;;;;1.70;1.60;;;6.60;99.90;;;;;;5011339;28;20222;-71
2023/11/16 16:46:20;;;;;;;3.55;2.00;;;6.60;99.90;;;;;;5011466;28;20234;-71
2023/11/16 16:48:47;;;;;;;1.70;1.55;;;6.60;99.90;;;;;;5009564;28;20290;-71
2023/11/16 16:51:14;;;;;;;4.45;1.83;;;6.60;99.90;;;;;;5006786;28;20230;-71
2023/11/16 16:53:43;;;;;;;1.75;1.65;;;6.60;99.90;;;;;;5009916;28;20603;-71
2023/11/16 16:56:10;;;;;;;4.38;1.77;;;6.60;99.90;;;;;;5008884;28;20214;-70
2023/11/16 16:58:38;;;;;;;3.28;2.22;;;6.50;99.90;;;;;;5009461;28;20214;-71
2023/11/16 17:01:06;;;;;;;3.75;2.40;;;6.50;99.90;;;;;;5010721;28;20392;-70
2023/11/16 17:03:32;;;;;;;7.57;2.70;;;6.50;99.90;;;;;;5011848;28;20287;-70
2023/11/16 17:05:59;;;;;;;6.45;2.70;;;6.50;99.90;;;;;;5010521;28;20723;-70
2023/11/16 17:08:26;;;;;;;4.72;2.78;;;6.60;99.90;;;;;;5011494;28;20211;-70
2023/11/16 17:10:54;;;;;;;3.15;2.55;;;6.60;99.90;;;;;;5009459;28;20248;-70
2023/11/16 17:13:21;;;;;;;2.13;1.90;;;6.60;99.90;;;;;;5010800;28;20209;-70
2023/11/16 17:15:47;;;;;;;2.63;2.15;;;6.60;99.90;;;;;;5011611;28;20225;-70
2023/11/16 17:18:14;;;;;;;1.98;1.70;;;6.60;99.90;;;;;;5005361;28;20467;-70